Time;durP1;ratioP1;P1;durP2;ratioP2;P2;SDS_P1;SDS_P2;PMS_P1;PMS_P2;Temp;Humidity;BMP_temperature;BMP_pressure;BME280_temperature;BME280_humidity;BME280_pressure;Samples;Min_cycle;Max_cycle;Signal;HPM_P1;HPM_P2
2023/02/14 00:00:17;;;;;;;39.70;21.02;;;;;;;1.78;59.33;100908.72;5091980;28;20455;-71
2023/02/14 00:02:42;;;;;;;43.65;20.33;;;;;;;1.96;59.01;100908.56;5091735;28;20462;-71
2023/02/14 00:05:08;;;;;;;32.97;19.10;;;;;;;1.82;58.82;100899.72;5091215;28;20039;-71
2023/02/14 00:07:33;;;;;;;35.75;18.90;;;;;;;1.82;59.18;100899.72;5097979;28;20118;-70
2023/02/14 00:09:59;;;;;;;37.72;20.13;;;;;;;1.89;58.96;100905.13;5112237;28;20016;-70
2023/02/14 00:12:24;;;;;;;40.53;20.48;;;;;;;1.87;59.12;100896.25;5103734;28;20024;-71
2023/02/14 00:17:34;;;;;;;36.00;18.48;;;;;;;1.71;58.55;100892.28;5092147;28;20023;-71
2023/02/14 00:19:59;;;;;;;35.08;18.88;;;;;;;1.75;58.58;100890.72;5090672;28;20020;-71
2023/02/14 00:22:25;;;;;;;34.03;18.65;;;;;;;1.69;58.54;100899.97;5096433;28;20023;-71
2023/02/14 00:24:50;;;;;;;36.85;17.67;;;;;;;1.67;58.88;100902.09;5110845;28;20023;-71
2023/02/14 00:27:16;;;;;;;35.80;19.80;;;;;;;1.75;58.36;100904.50;5105076;28;20054;-71
2023/02/14 00:29:41;;;;;;;36.38;19.83;;;;;;;1.46;59.77;100915.44;5091661;28;20028;-71
2023/02/14 00:32:07;;;;;;;44.55;22.10;;;;;;;1.31;60.06;100913.13;5090060;28;20048;-71
2023/02/14 00:34:35;;;;;;;47.90;25.23;;;;;;;1.29;60.45;100900.66;5091766;28;20560;-71
2023/02/14 00:37:01;;;;;;;39.92;22.70;;;;;;;1.25;60.35;100895.63;5090930;28;20032;-71
2023/02/14 00:39:26;;;;;;;37.20;21.05;;;;;;;1.20;60.37;100886.38;5091817;28;20397;-71
2023/02/14 00:41:52;;;;;;;37.13;19.92;;;;;;;1.14;60.51;100890.94;5091317;28;20024;-71
2023/02/14 00:44:18;;;;;;;41.42;21.15;;;;;;;1.28;60.07;100894.31;5091828;28;20024;-71
2023/02/14 00:46:44;;;;;;;40.28;20.23;;;;;;;1.42;59.62;100894.91;5090164;28;20032;-71
2023/02/14 00:49:09;;;;;;;35.70;19.85;;;;;;;1.46;58.94;100885.09;5104209;28;20188;-71
2023/02/14 00:51:35;;;;;;;32.72;16.50;;;;;;;1.50;58.75;100888.19;5109610;28;20030;-71
2023/02/14 00:54:02;;;;;;;37.00;18.48;;;;;;;1.59;58.33;100888.69;5089898;28;20028;-71
2023/02/14 00:56:27;;;;;;;37.42;17.08;;;;;;;1.46;57.46;100879.59;5090424;28;20024;-71
2023/02/14 00:58:53;;;;;;;33.53;18.02;;;;;;;1.34;58.04;100881.50;5091367;28;20082;-71
2023/02/14 01:01:19;;;;;;;37.67;17.40;;;;;;;1.35;58.17;100881.25;5091073;28;20085;-71
2023/02/14 01:03:45;;;;;;;35.10;18.67;;;;;;;1.29;58.54;100884.97;5090767;28;20138;-71
2023/02/14 01:06:10;;;;;;;43.72;19.60;;;;;;;1.46;57.86;100896.13;5090572;28;20514;-71
2023/02/14 01:08:36;;;;;;;52.58;24.48;;;;;;;1.28;58.27;100886.03;5091304;28;20020;-71
2023/02/14 01:11:16;;;;;;;37.92;19.60;;;;;;;1.14;58.70;100888.16;5091280;28;20044;-71
2023/02/14 01:13:42;;;;;;;32.22;17.55;;;;;;;1.03;59.10;100878.81;5069544;28;20035;-71
2023/02/14 01:16:10;;;;;;;31.88;16.38;;;;;;;1.03;58.91;100877.97;5069761;28;20032;-70
2023/02/14 01:18:36;;;;;;;27.55;14.98;;;;;;;0.94;58.91;100874.72;5087236;28;20478;-70
2023/02/14 01:21:14;;;;;;;30.98;16.02;;;;;;;1.03;58.89;100869.69;5100641;28;20036;-71
2023/02/14 01:23:41;;;;;;;29.85;15.55;;;;;;;1.05;58.32;100865.63;5112813;28;20385;-71
2023/02/14 01:26:07;;;;;;;29.67;16.70;;;;;;;1.09;58.88;100866.00;5115367;28;20106;-71
2023/02/14 01:28:33;;;;;;;32.50;16.65;;;;;;;1.09;58.85;100863.25;5115379;28;20515;-71
2023/02/14 01:31:26;;;;;;;32.45;16.25;;;;;;;1.33;58.05;100869.63;5101785;28;20023;-71
2023/02/14 01:33:52;;;;;;;33.10;16.00;;;;;;;1.40;57.99;100856.56;5090693;28;20044;-71
2023/02/14 01:36:27;;;;;;;30.02;15.07;;;;;;;1.25;57.93;100853.41;5095055;28;20024;-71
2023/02/14 01:38:56;;;;;;;29.70;15.48;;;;;;;1.42;57.96;100866.50;5093306;28;20119;-71
2023/02/14 01:41:22;;;;;;;28.23;15.65;;;;;;;1.54;57.69;100865.41;5094289;28;20012;-71
2023/02/14 01:44:07;;;;;;;32.13;17.38;;;;;;;1.33;57.96;100857.75;5094583;28;20024;-71
2023/02/14 01:46:35;;;;;;;35.25;16.73;;;;;;;1.18;58.30;100860.97;5109148;28;20447;-71
2023/02/14 01:49:04;;;;;;;36.85;18.17;;;;;;;1.07;59.43;100859.88;5100571;28;20039;-71
2023/02/14 01:51:31;;;;;;;32.35;16.58;;;;;;;1.35;58.12;100861.94;5094130;28;20459;-71
2023/02/14 01:53:58;;;;;;;31.13;15.82;;;;;;;1.34;57.99;100860.25;5094414;28;20020;-71
2023/02/14 01:56:31;;;;;;;30.42;16.70;;;;;;;1.49;57.52;100862.56;5094572;28;20135;-71
2023/02/14 01:59:01;;;;;;;24.15;15.27;;;;;;;1.60;57.26;100852.56;5094255;28;20107;-71
2023/02/14 02:01:28;;;;;;;30.52;16.27;;;;;;;1.59;57.14;100844.56;5093683;28;20039;-71
2023/02/14 02:03:56;;;;;;;31.15;16.45;;;;;;;1.76;56.90;100847.44;5094361;28;20035;-71
2023/02/14 02:06:27;;;;;;;34.17;16.92;;;;;;;1.74;56.60;100839.38;5092966;28;20024;-71
2023/02/14 02:09:03;;;;;;;32.38;16.48;;;;;;;1.86;56.44;100838.53;5072483;28;20055;-71
2023/02/14 02:11:29;;;;;;;29.45;13.98;;;;;;;1.86;56.12;100828.31;5073857;28;20363;-71
2023/02/14 02:13:54;;;;;;;29.23;16.75;;;;;;;1.92;56.27;100818.22;5092674;28;20024;-71
2023/02/14 02:16:26;;;;;;;30.55;15.57;;;;;;;1.79;56.46;100820.16;5109099;28;20031;-71
2023/02/14 02:19:08;;;;;;;29.52;15.85;;;;;;;1.82;56.70;100822.47;5114316;27;20039;-71
2023/02/14 02:22:21;;;;;;;29.67;16.00;;;;;;;1.88;56.67;100828.94;5112240;28;20019;-71
2023/02/14 02:25:03;;;;;;;24.83;13.80;;;;;;;1.93;56.77;100826.25;5093873;28;20031;-71
2023/02/14 02:27:56;;;;;;;29.20;16.73;;;;;;;1.75;56.59;100829.16;5092788;28;20555;-71
2023/02/14 02:30:49;;;;;;;31.27;15.43;;;;;;;1.80;56.67;100824.59;5091189;28;20043;-71
2023/02/14 02:33:32;;;;;;;34.85;16.15;;;;;;;1.89;56.71;100821.47;5093536;28;20039;-70
2023/02/14 02:36:45;;;;;;;32.13;16.60;;;;;;;1.77;56.64;100810.47;5092399;28;20375;-70
2023/02/14 02:39:35;;;;;;;34.13;17.00;;;;;;;1.72;56.98;100810.34;5092355;28;20544;-71
2023/02/14 02:42:05;;;;;;;35.33;16.77;;;;;;;1.54;57.42;100801.97;5093235;28;20024;-71
2023/02/14 02:44:50;;;;;;;32.20;17.80;;;;;;;1.08;58.92;100811.94;5099764;28;20027;-71
2023/02/14 02:48:05;;;;;;;37.50;20.48;;;;;;;0.82;60.09;100823.19;5112571;28;20130;-71
2023/02/14 02:53:43;;;;;;;37.65;18.30;;;;;;;0.84;59.89;100822.94;5096829;28;20058;-71
2023/02/14 02:59:17;;;;;;;41.67;22.35;;;;;;;0.93;59.75;100823.44;5096954;28;20239;-71
2023/02/14 03:01:47;;;;;;;39.85;20.85;;;;;;;0.90;59.67;100810.13;5094394;28;20058;-71
2023/02/14 03:06:59;;;;;;;30.20;17.48;;;;;;;0.90;59.79;100808.22;5093547;28;20085;-71
2023/02/14 03:09:25;;;;;;;35.75;18.50;;;;;;;0.82;60.12;100808.56;5092973;28;20027;-71
2023/02/14 03:11:59;;;;;;;46.17;21.60;;;;;;;0.82;59.90;100808.56;5091503;28;20038;-71
2023/02/14 03:14:46;;;;;;;50.47;23.52;;;;;;;0.94;59.95;100806.66;5091047;28;20032;-71
2023/02/14 03:17:21;;;;;;;58.30;24.35;;;;;;;1.12;59.41;100804.88;5080012;28;20032;-71
2023/02/14 03:20:13;;;;;;;42.95;20.35;;;;;;;1.28;59.47;100805.25;5080566;28;20028;-71
2023/02/14 03:22:56;;;;;;;40.70;20.77;;;;;;;1.30;58.90;100808.59;5088603;28;20114;-70
2023/02/14 03:25:35;;;;;;;45.60;20.38;;;;;;;1.15;58.92;100804.41;5092764;28;20042;-71
2023/02/14 03:28:06;;;;;;;34.40;20.08;;;;;;;1.06;59.46;100805.84;5092488;28;20020;-71
2023/02/14 03:30:52;;;;;;;39.75;20.55;;;;;;;1.01;59.37;100786.44;5095485;28;20038;-71
2023/02/14 03:33:29;;;;;;;37.15;18.83;;;;;;;1.21;58.72;100781.41;5092487;28;20519;-71
2023/02/14 03:36:20;;;;;;;35.45;18.27;;;;;;;1.21;59.17;100777.81;5092260;28;20546;-71
2023/02/14 03:39:23;;;;;;;34.97;19.38;;;;;;;1.10;59.26;100785.00;5092459;28;20503;-70
2023/02/14 03:41:55;;;;;;;29.40;17.08;;;;;;;1.09;59.31;100788.84;5084892;28;20036;-71
2023/02/14 03:44:24;;;;;;;35.53;18.85;;;;;;;1.18;59.03;100789.31;5079748;28;20020;-71
2023/02/14 03:47:11;;;;;;;30.48;16.95;;;;;;;1.24;59.04;100789.19;5091073;28;20373;-71
2023/02/14 03:49:43;;;;;;;38.50;20.38;;;;;;;1.40;58.76;100800.56;5094276;28;20044;-71
2023/02/14 03:52:11;;;;;;;33.88;18.42;;;;;;;1.56;58.23;100790.72;5092065;28;20122;-70
2023/02/14 03:54:37;;;;;;;36.45;18.55;;;;;;;1.57;57.97;100786.03;5078809;28;20082;-71
2023/02/14 03:57:19;;;;;;;34.35;19.48;;;;;;;1.57;58.30;100780.50;5072011;28;20111;-71
2023/02/14 03:59:45;;;;;;;36.03;20.90;;;;;;;1.50;58.27;100795.28;5073357;28;20031;-71
2023/02/14 04:02:40;;;;;;;35.10;19.17;;;;;;;1.38;58.59;100783.44;5091980;28;20016;-71
2023/02/14 04:05:18;;;;;;;37.88;18.55;;;;;;;1.37;58.53;100782.56;5103215;28;20418;-71
2023/02/14 04:07:49;;;;;;;31.83;17.48;;;;;;;1.17;58.71;100774.69;5092035;28;20024;-71
2023/02/14 04:10:15;;;;;;;34.20;17.30;;;;;;;0.93;58.47;100782.13;5093888;28;20489;-71
2023/02/14 04:12:42;;;;;;;32.15;16.25;;;;;;;0.74;59.01;100775.88;5102829;28;20092;-70
2023/02/14 04:15:08;;;;;;;44.00;18.45;;;;;;;0.76;58.69;100776.47;5092165;28;20495;-71
2023/02/14 04:20:18;;;;;;;31.45;16.75;;;;;;;0.87;58.39;100774.78;5084403;28;20089;-71
2023/02/14 04:22:45;;;;;;;26.90;14.95;;;;;;;0.77;58.13;100764.38;5091822;28;20482;-71
2023/02/14 04:25:11;;;;;;;27.85;14.75;;;;;;;0.73;58.01;100743.91;5091812;28;20115;-71
2023/02/14 04:27:36;;;;;;;30.40;13.77;;;;;;;0.84;57.73;100746.66;5089718;28;20028;-70
2023/02/14 04:30:06;;;;;;;25.52;13.95;;;;;;;0.82;57.52;100745.19;5091433;28;20024;-71
2023/02/14 04:32:31;;;;;;;24.50;12.93;;;;;;;0.92;57.37;100747.38;5086152;28;20075;-71
2023/02/14 04:34:56;;;;;;;30.70;15.15;;;;;;;0.90;57.61;100727.47;5070134;28;20057;-71
2023/02/14 04:37:22;;;;;;;31.33;15.68;;;;;;;0.84;58.36;100729.25;5082558;28;20050;-70
2023/02/14 04:39:47;;;;;;;29.95;15.82;;;;;;;0.77;58.37;100729.38;5090402;28;20020;-70
2023/02/14 04:42:13;;;;;;;30.60;15.15;;;;;;;0.83;58.93;100733.09;5091256;28;20024;-71
2023/02/14 04:44:39;;;;;;;30.15;15.68;;;;;;;0.93;58.69;100738.84;5091421;28;20042;-70
2023/02/14 04:47:06;;;;;;;33.53;16.42;;;;;;;0.94;58.74;100736.94;5106525;28;20092;-70
2023/02/14 04:49:31;;;;;;;37.85;16.88;;;;;;;1.05;58.52;100721.47;5091186;28;20079;-71
2023/02/14 04:51:57;;;;;;;40.67;20.70;;;;;;;1.03;59.02;100721.75;5091571;28;20081;-71
2023/02/14 04:54:24;;;;;;;41.13;23.92;;;;;;;1.16;58.89;100712.38;5095347;28;20024;-71
2023/02/14 04:56:50;;;;;;;45.05;22.50;;;;;;;1.38;58.41;100717.25;5094241;28;20028;-71
2023/02/14 04:59:15;;;;;;;37.75;20.63;;;;;;;1.47;57.82;100709.44;5094895;28;20039;-71
2023/02/14 05:01:41;;;;;;;39.40;18.80;;;;;;;1.37;57.17;100715.56;5109529;28;20020;-70
2023/02/14 05:04:07;;;;;;;36.25;19.13;;;;;;;1.21;57.75;100712.50;5110522;28;20024;-71
2023/02/14 05:06:32;;;;;;;34.80;19.52;;;;;;;0.99;58.32;100709.50;5095024;28;20504;-71
2023/02/14 05:08:59;;;;;;;60.97;34.20;;;;;;;0.98;58.45;100703.16;5095458;28;20032;-70
2023/02/14 05:11:25;;;;;;;51.78;29.05;;;;;;;0.93;59.12;100700.28;5093777;28;20035;-71
2023/02/14 05:13:51;;;;;;;40.60;22.25;;;;;;;0.94;58.95;100692.88;5092178;28;20032;-71
2023/02/14 05:16:16;;;;;;;43.17;23.60;;;;;;;0.92;58.78;100695.84;5100409;28;20035;-71
2023/02/14 05:18:42;;;;;;;42.08;21.08;;;;;;;0.79;59.51;100694.19;5104206;28;20115;-70
2023/02/14 05:21:07;;;;;;;33.67;18.45;;;;;;;0.86;59.17;100694.06;5095062;28;20046;-71
2023/02/14 05:23:33;;;;;;;34.28;19.63;;;;;;;0.78;59.69;100691.66;5082355;28;20047;-71
2023/02/14 05:25:58;;;;;;;35.53;20.80;;;;;;;0.92;60.06;100700.53;5091896;28;20433;-71
2023/02/14 05:28:24;;;;;;;54.53;29.35;;;;;;;0.95;60.22;100698.13;5094681;28;20081;-71
2023/02/14 05:30:50;;;;;;;52.30;27.83;;;;;;;0.95;60.57;100697.28;5092133;28;20093;-72
2023/02/14 05:33:16;;;;;;;44.63;23.88;;;;;;;1.06;60.61;100698.34;5094469;28;20024;-71
2023/02/14 05:35:41;;;;;;;35.60;21.10;;;;;;;1.07;60.26;100700.88;5082986;28;20031;-72
2023/02/14 05:38:07;;;;;;;49.67;23.75;;;;;;;1.05;59.97;100696.69;5088338;28;20031;-71
2023/02/14 05:40:33;;;;;;;33.83;19.52;;;;;;;1.24;59.57;100708.41;5093110;28;20178;-71
2023/02/14 05:42:58;;;;;;;43.20;18.42;;;;;;;1.32;58.91;100713.53;5094090;28;20024;-71
2023/02/14 05:45:24;;;;;;;41.17;20.02;;;;;;;1.32;58.94;100699.75;5107134;28;20031;-72
2023/02/14 05:47:50;;;;;;;41.17;18.88;;;;;;;1.43;59.35;100706.31;5082937;28;20444;-70
2023/02/14 05:50:17;;;;;;;41.50;20.55;;;;;;;1.48;58.94;100716.63;5089659;28;20074;-70
2023/02/14 05:52:43;;;;;;;48.38;23.55;;;;;;;1.61;58.49;100718.28;5091206;28;20051;-69
2023/02/14 05:55:09;;;;;;;47.60;22.40;;;;;;;1.58;58.51;100707.75;5090251;28;20020;-70
2023/02/14 05:57:35;;;;;;;48.95;20.65;;;;;;;1.59;58.39;100703.91;5091228;28;20024;-70
2023/02/14 06:00:00;;;;;;;43.08;22.42;;;;;;;1.75;57.85;100705.00;5089234;28;20031;-69
2023/02/14 06:02:26;;;;;;;44.58;23.20;;;;;;;1.67;58.35;100698.81;5090720;28;20055;-69
2023/02/14 06:04:52;;;;;;;41.08;22.63;;;;;;;1.68;58.10;100694.97;5090486;28;20033;-69
2023/02/14 06:07:17;;;;;;;62.03;32.67;;;;;;;1.85;57.72;100696.94;5090529;28;20106;-68
2023/02/14 06:09:43;;;;;;;58.90;29.30;;;;;;;1.97;57.01;100694.16;5085722;28;20111;-68
2023/02/14 06:12:08;;;;;;;88.07;54.28;;;;;;;2.08;57.18;100701.53;5083417;28;20027;-69
2023/02/14 06:14:34;;;;;;;84.30;49.78;;;;;;;2.17;56.76;100695.59;5085858;28;20032;-70
2023/02/14 06:16:59;;;;;;;51.30;27.35;;;;;;;2.28;56.49;100700.19;5079958;28;20407;-70
2023/02/14 06:19:25;;;;;;;71.00;37.58;;;;;;;2.36;56.24;100699.81;5073294;28;20036;-71
2023/02/14 06:21:50;;;;;;;44.85;25.20;;;;;;;2.51;55.91;100692.84;5085868;28;20037;-68
2023/02/14 06:24:16;;;;;;;49.20;20.73;;;;;;;2.66;55.22;100701.41;5078072;28;20096;-69
2023/02/14 06:26:41;;;;;;;38.38;21.30;;;;;;;2.67;54.45;100705.84;5074354;28;20056;-70
2023/02/14 06:29:07;;;;;;;36.15;20.42;;;;;;;2.78;54.85;100703.25;5086766;28;20027;-69
2023/02/14 06:31:32;;;;;;;39.42;21.13;;;;;;;2.81;54.46;100691.69;5087567;28;20554;-70
2023/02/14 06:33:58;;;;;;;42.97;23.63;;;;;;;2.97;53.80;100695.50;5074180;28;20037;-70
2023/02/14 06:36:23;;;;;;;46.45;21.90;;;;;;;3.12;53.65;100699.59;5081796;28;20043;-71
2023/02/14 06:38:49;;;;;;;39.17;21.25;;;;;;;3.13;54.17;100702.06;5083067;28;20028;-69
2023/02/14 06:41:16;;;;;;;35.70;21.00;;;;;;;3.37;53.04;100707.38;5074906;28;20012;-71
2023/02/14 06:43:49;;;;;;;40.17;20.75;;;;;;;3.41;53.06;100697.50;5084099;28;20027;-71
2023/02/14 06:46:16;;;;;;;40.40;20.92;;;;;;;3.54;53.32;100704.56;5078821;28;20085;-71
2023/02/14 06:48:41;;;;;;;48.40;24.55;;;;;;;3.58;52.99;100697.44;5077814;28;20564;-70
2023/02/14 06:51:07;;;;;;;42.05;22.50;;;;;;;3.43;54.42;100706.38;5077167;28;20037;-70
2023/02/14 06:53:32;;;;;;;40.72;22.70;;;;;;;3.63;54.35;100705.78;5085326;28;20036;-68
2023/02/14 06:55:58;;;;;;;41.05;23.15;;;;;;;3.70;54.59;100713.06;5088637;28;20035;-71
2023/02/14 06:58:23;;;;;;;43.70;22.20;;;;;;;3.89;54.44;100713.56;5073553;28;20028;-71
2023/02/14 07:00:49;;;;;;;45.30;24.13;;;;;;;4.07;53.84;100704.88;5080897;28;20056;-69
2023/02/14 07:03:14;;;;;;;44.47;22.92;;;;;;;4.08;54.58;100697.41;5089067;28;20039;-69
2023/02/14 07:05:40;;;;;;;49.60;25.65;;;;;;;4.06;54.31;100688.53;5083327;28;20071;-70
2023/02/14 07:08:07;;;;;;;37.55;22.45;;;;;;;4.21;54.21;100687.84;5090841;28;20020;-72
2023/02/14 07:10:35;;;;;;;46.05;24.02;;;;;;;4.29;53.79;100694.84;5102434;28;20023;-71
2023/02/14 07:13:01;;;;;;;42.00;20.75;;;;;;;4.31;53.88;100693.47;5096047;28;20028;-73
2023/02/14 07:15:26;;;;;;;39.78;22.27;;;;;;;4.56;53.47;100692.03;5087715;28;20568;-74
2023/02/14 07:17:52;;;;;;;41.08;19.80;;;;;;;4.55;53.03;100692.31;5089890;28;20036;-71
2023/02/14 07:20:17;;;;;;;38.17;20.15;;;;;;;4.50;53.39;100701.41;5089087;28;20031;-73
2023/02/14 07:22:44;;;;;;;45.97;20.30;;;;;;;4.66;53.05;100688.50;5101336;28;20118;-73
2023/02/14 07:25:10;;;;;;;39.38;20.90;;;;;;;4.76;52.22;100690.53;5081395;28;20055;-74
2023/02/14 07:27:36;;;;;;;44.63;20.90;;;;;;;4.89;52.05;100692.81;5081309;28;20051;-74
2023/02/14 07:30:03;;;;;;;36.50;20.52;;;;;;;5.09;52.08;100680.19;5082621;28;20075;-70
2023/02/14 07:32:29;;;;;;;42.15;20.50;;;;;;;5.20;51.43;100676.38;5086037;28;20472;-72
2023/02/14 07:34:54;;;;;;;37.78;19.25;;;;;;;5.13;51.73;100674.94;5088501;28;20086;-72
2023/02/14 07:37:20;;;;;;;32.78;19.40;;;;;;;5.16;51.74;100669.69;5093115;28;20036;-70
2023/02/14 07:39:45;;;;;;;37.28;21.40;;;;;;;5.29;51.75;100667.53;5087862;28;20074;-71
2023/02/14 07:42:11;;;;;;;38.70;22.38;;;;;;;5.32;51.33;100669.78;5090948;28;20035;-71
2023/02/14 07:44:37;;;;;;;44.95;23.58;;;;;;;5.45;51.46;100658.19;5093635;28;20058;-71
2023/02/14 07:47:04;;;;;;;37.85;21.27;;;;;;;5.59;50.70;100664.03;5091210;28;20113;-70
2023/02/14 07:49:30;;;;;;;37.58;21.38;;;;;;;5.62;50.20;100655.19;5096426;28;20413;-70
2023/02/14 07:51:55;;;;;;;32.10;17.23;;;;;;;5.56;50.34;100667.38;5094927;28;20024;-72
2023/02/14 07:54:21;;;;;;;46.85;27.75;;;;;;;5.61;49.78;100663.78;5105667;28;20028;-71
2023/02/14 07:56:46;;;;;;;48.45;22.27;;;;;;;5.64;50.08;100668.78;5091043;28;20618;-71
2023/02/14 07:59:12;;;;;;;34.65;19.23;;;;;;;5.82;49.70;100655.53;5105930;28;20074;-71
2023/02/14 08:01:37;;;;;;;31.30;17.05;;;;;;;6.10;48.64;100657.00;5103297;28;20055;-72
2023/02/14 08:04:03;;;;;;;35.13;19.67;;;;;;;6.07;48.90;100653.94;5106441;28;20399;-72
2023/02/14 08:06:28;;;;;;;35.80;18.58;;;;;;;5.97;49.36;100654.69;5106341;28;20036;-72
2023/02/14 08:08:54;;;;;;;35.22;18.85;;;;;;;6.11;48.87;100649.47;5097867;28;20481;-72
2023/02/14 08:14:04;;;;;;;32.78;17.50;;;;;;;6.26;48.89;100657.81;5104941;28;20042;-72
2023/02/14 08:16:32;;;;;;;36.00;16.20;;;;;;;6.38;48.17;100656.72;5103740;28;20553;-72
2023/02/14 08:18:58;;;;;;;26.63;17.05;;;;;;;6.50;48.08;100657.25;5108323;28;20085;-72
2023/02/14 08:21:24;;;;;;;32.78;17.83;;;;;;;6.45;48.22;100654.50;5089726;28;20467;-72
2023/02/14 08:23:49;;;;;;;33.25;17.88;;;;;;;6.60;48.32;100651.69;5096028;28;20032;-72
2023/02/14 08:26:16;;;;;;;32.95;17.52;;;;;;;6.64;48.16;100657.53;5103836;28;20026;-71
2023/02/14 08:28:41;;;;;;;27.92;16.73;;;;;;;6.67;47.93;100661.72;5099823;28;20131;-72
2023/02/14 08:31:07;;;;;;;30.67;17.98;;;;;;;6.69;47.59;100665.88;5087828;28;20481;-73
2023/02/14 08:33:33;;;;;;;32.42;19.15;;;;;;;6.77;47.55;100667.28;5069707;28;20516;-73
2023/02/14 08:35:59;;;;;;;32.08;17.42;;;;;;;6.90;47.26;100659.47;5073380;28;20012;-72
2023/02/14 08:38:24;;;;;;;29.73;15.32;;;;;;;6.97;47.36;100665.56;5101503;28;20031;-72
2023/02/14 08:40:51;;;;;;;35.17;18.00;;;;;;;7.11;47.04;100668.59;5085860;28;20394;-72
2023/02/14 08:43:16;;;;;;;26.45;17.05;;;;;;;7.26;46.28;100664.94;5101786;28;20106;-72
2023/02/14 08:45:42;;;;;;;26.73;17.23;;;;;;;7.32;46.50;100661.00;5074694;28;20162;-72
2023/02/14 08:48:10;;;;;;;38.40;18.48;;;;;;;7.43;45.68;100657.06;5080564;28;20020;-71
2023/02/14 08:50:37;;;;;;;36.30;17.98;;;;;;;7.41;46.40;100667.66;5107344;28;20052;-72
2023/02/14 08:53:08;;;;;;;33.92;16.42;;;;;;;7.48;46.77;100674.84;5107456;28;20411;-71
2023/02/14 08:55:34;;;;;;;29.05;15.60;;;;;;;7.56;46.37;100665.91;5098930;28;20032;-72
2023/02/14 08:58:00;;;;;;;34.50;17.48;;;;;;;7.58;46.39;100664.53;5090977;28;20505;-71
2023/02/14 09:00:25;;;;;;;41.17;18.25;;;;;;;7.74;45.63;100658.88;5104924;28;20019;-72
2023/02/14 09:02:52;;;;;;;37.00;17.42;;;;;;;7.77;46.09;100652.72;5111342;28;20112;-72
2023/02/14 09:05:18;;;;;;;60.97;19.33;;;;;;;7.84;45.72;100644.03;5111162;28;20024;-72
2023/02/14 09:07:43;;;;;;;37.08;18.40;;;;;;;7.82;45.23;100636.00;5102597;28;20027;-72
2023/02/14 09:10:09;;;;;;;37.85;18.40;;;;;;;7.71;45.21;100645.53;5098356;28;20490;-72
2023/02/14 09:12:38;;;;;;;32.17;16.00;;;;;;;7.75;45.53;100640.22;5090867;28;20093;-72
2023/02/14 09:15:04;;;;;;;31.83;16.40;;;;;;;8.05;45.62;100639.19;5089784;28;20053;-72
2023/02/14 09:17:33;;;;;;;40.58;17.98;;;;;;;8.07;45.02;100641.66;5094121;28;20020;-72
2023/02/14 09:19:58;;;;;;;23.58;14.90;;;;;;;8.11;45.18;100643.59;5098789;28;20459;-72
2023/02/14 09:22:24;;;;;;;41.28;17.50;;;;;;;8.31;45.16;100630.63;5088703;28;20057;-72
2023/02/14 09:24:49;;;;;;;34.58;16.50;;;;;;;8.04;45.17;100637.53;5090613;28;20035;-71
2023/02/14 09:27:15;;;;;;;30.13;16.50;;;;;;;8.10;44.76;100639.13;5088666;28;20406;-71
2023/02/14 09:29:40;;;;;;;35.03;17.48;;;;;;;8.22;44.68;100635.16;5084214;28;20082;-71
2023/02/14 09:32:05;;;;;;;30.60;17.20;;;;;;;8.19;45.39;100621.81;5092360;28;20035;-71
2023/02/14 09:37:17;;;;;;;29.98;17.15;;;;;;;8.34;43.54;100607.72;5090885;28;20792;-72
2023/02/14 09:39:42;;;;;;;36.25;18.20;;;;;;;8.28;44.17;100614.50;5091041;28;20055;-73
2023/02/14 09:42:58;;;;;;;30.98;17.35;;;;;;;8.25;44.64;100615.91;5092466;28;20020;-72
2023/02/14 09:45:27;;;;;;;29.38;15.40;;;;;;;8.32;45.13;100612.78;5012462;28;20156;-69
2023/02/14 09:47:55;;;;;;;29.15;16.08;;;;;;;8.35;44.19;100616.94;4980487;28;20096;-69
2023/02/14 09:50:26;;;;;;;26.80;16.05;;;;;;;8.35;44.21;100614.97;5051876;28;20079;-71
2023/02/14 09:52:59;;;;;;;32.47;17.15;;;;;;;8.67;44.72;100602.44;5103413;28;20101;-70
2023/02/14 09:55:34;;;;;;;27.98;16.00;;;;;;;8.76;44.52;100607.38;5096148;28;20730;-71
2023/02/14 09:58:18;;;;;;;33.40;18.13;;;;;;;8.91;43.82;100600.78;5093156;28;20120;-70
2023/02/14 10:01:22;;;;;;;28.40;17.23;;;;;;;8.79;44.42;100606.78;5098595;28;20106;-70
2023/02/14 10:04:01;;;;;;;31.55;16.70;;;;;;;8.43;44.59;100610.72;5090334;28;20051;-70
2023/02/14 10:06:57;;;;;;;36.38;17.45;;;;;;;8.48;45.74;100593.97;5091909;28;20524;-70
2023/02/14 10:09:30;;;;;;;39.03;17.88;;;;;;;8.26;44.93;100595.25;5081653;28;20035;-69
2023/02/14 10:11:58;;;;;;;33.08;18.13;;;;;;;8.48;45.35;100591.16;5089660;28;20023;-70
2023/02/14 10:14:28;;;;;;;29.40;15.93;;;;;;;8.72;44.83;100593.19;5081848;28;20035;-70
2023/02/14 10:17:20;;;;;;;31.20;15.35;;;;;;;8.07;45.54;100569.22;5088152;28;20073;-70
2023/02/14 10:19:52;;;;;;;31.58;17.85;;;;;;;8.15;45.49;100582.53;5090380;28;20044;-69
2023/02/14 10:22:22;;;;;;;28.60;16.40;;;;;;;8.40;44.79;100564.75;5085736;28;20025;-71
2023/02/14 10:24:57;;;;;;;28.30;15.47;;;;;;;8.20;44.43;100570.50;5087486;28;20024;-72
2023/02/14 10:27:33;;;;;;;28.98;16.35;;;;;;;8.37;44.46;100558.94;5089321;28;20795;-71
2023/02/14 10:30:01;;;;;;;30.42;16.73;;;;;;;8.47;44.93;100561.63;5091605;28;20020;-73
2023/02/14 10:32:41;;;;;;;28.25;16.58;;;;;;;8.62;45.22;100571.81;5086586;28;20084;-71
2023/02/14 10:35:37;;;;;;;31.85;16.08;;;;;;;8.70;45.31;100554.44;5100398;28;20028;-70
2023/02/14 10:38:21;;;;;;;37.35;14.95;;;;;;;8.60;44.76;100540.59;5094319;28;20031;-72
2023/02/14 10:41:19;;;;;;;32.28;16.50;;;;;;;8.24;45.44;100561.28;5093732;28;20058;-73
2023/02/14 10:44:17;;;;;;;25.98;15.48;;;;;;;8.49;45.04;100551.00;5106615;28;20082;-74
2023/02/14 10:46:52;;;;;;;29.20;14.90;;;;;;;8.61;44.72;100545.03;5078883;28;20494;-72
2023/02/14 10:49:28;;;;;;;30.38;14.02;;;;;;;8.66;44.35;100538.56;5094062;28;20054;-72
2023/02/14 10:52:16;;;;;;;24.77;15.90;;;;;;;8.59;45.75;100538.13;5083780;28;20146;-73
2023/02/14 10:54:45;;;;;;;23.13;13.07;;;;;;;8.67;44.02;100532.72;5090783;28;20032;-72
2023/02/14 10:57:20;;;;;;;27.17;13.30;;;;;;;8.65;44.18;100528.56;5088940;28;20546;-72
2023/02/14 10:59:59;;;;;;;30.05;13.00;;;;;;;8.63;43.02;100526.06;5089184;28;20066;-72
2023/02/14 11:02:31;;;;;;;23.92;13.73;;;;;;;8.44;43.96;100545.47;5087955;28;20032;-74
2023/02/14 11:04:58;;;;;;;19.73;13.98;;;;;;;8.45;44.05;100530.44;5108365;28;20040;-73
2023/02/14 11:07:24;;;;;;;20.50;13.20;;;;;;;8.59;42.93;100524.16;5089114;28;20494;-74
2023/02/14 11:09:49;;;;;;;23.73;12.93;;;;;;;8.74;43.74;100510.03;5091337;28;20112;-72
2023/02/14 11:12:36;;;;;;;28.83;13.60;;;;;;;8.54;43.63;100503.56;5090392;28;20055;-72
2023/02/14 11:15:30;;;;;;;24.02;13.27;;;;;;;8.71;43.41;100503.09;5080874;28;20043;-72
2023/02/14 11:18:21;;;;;;;29.77;14.35;;;;;;;8.64;44.92;100491.47;5072049;28;20046;-71
2023/02/14 11:21:05;;;;;;;28.45;17.40;;;;;;;8.82;44.18;100500.19;5087819;28;20879;-71
2023/02/14 11:23:36;;;;;;;22.38;15.63;;;;;;;8.81;43.40;100493.78;5083507;28;20089;-71
2023/02/14 11:26:23;;;;;;;35.45;18.83;;;;;;;8.56;44.65;100495.72;5085717;28;20029;-70
2023/02/14 11:28:54;;;;;;;27.50;15.85;;;;;;;8.63;43.61;100497.34;5084868;28;20040;-71
2023/02/14 11:31:35;;;;;;;35.60;18.90;;;;;;;8.76;43.60;100496.63;5081760;28;20474;-71
2023/02/14 11:34:04;;;;;;;27.05;13.60;;;;;;;8.78;41.98;100499.13;5084362;28;20023;-71
2023/02/14 11:36:30;;;;;;;26.45;16.52;;;;;;;8.73;43.29;100496.38;5085520;28;20022;-71
2023/02/14 11:39:15;;;;;;;27.55;14.52;;;;;;;8.71;43.33;100505.06;5087937;28;20036;-71
2023/02/14 11:41:49;;;;;;;23.58;13.10;;;;;;;8.74;41.82;100490.53;5089179;28;20012;-71
2023/02/14 11:44:21;;;;;;;24.73;15.43;;;;;;;8.59;43.35;100494.31;5089743;28;20486;-71
2023/02/14 11:46:48;;;;;;;33.08;15.57;;;;;;;8.83;43.72;100487.91;5087407;28;20019;-71
2023/02/14 11:49:27;;;;;;;24.10;12.93;;;;;;;8.64;43.50;100465.53;5085079;28;20071;-71
2023/02/14 11:51:53;;;;;;;30.45;14.85;;;;;;;8.92;44.04;100476.88;5087616;28;20032;-70